Time;durP1;ratioP1;P1;durP2;ratioP2;P2;SDS_P1;SDS_P2;PMS_P1;PMS_P2;Temp;Humidity;BMP_temperature;BMP_pressure;BME280_temperature;BME280_humidity;BME280_pressure;Samples;Min_cycle;Max_cycle;Signal;HPM_P1;HPM_P2
2022/04/07 00:00:23;;;;;;;12.85;3.28;;;8.70;99.90;;;;;;5032554;28;20083;-42
2022/04/07 00:02:49;;;;;;;10.18;2.80;;;8.70;99.90;;;;;;5013957;28;20038;-41
2022/04/07 00:05:15;;;;;;;13.77;3.22;;;8.70;99.90;;;;;;5027096;28;20050;-42
2022/04/07 00:07:41;;;;;;;15.88;3.30;;;8.70;99.90;;;;;;4987450;28;20534;-41
2022/04/07 00:10:07;;;;;;;19.25;3.92;;;8.70;99.90;;;;;;5006892;28;20502;-41
2022/04/07 00:12:33;;;;;;;14.80;3.45;;;8.70;99.90;;;;;;5028008;28;20463;-41
2022/04/07 00:15:00;;;;;;;17.35;3.97;;;8.70;99.90;;;;;;5034285;28;20049;-43
2022/04/07 00:17:27;;;;;;;19.50;4.03;;;8.70;99.90;;;;;;5027753;28;20128;-41
2022/04/07 00:20:01;;;;;;;18.25;3.60;;;8.70;99.90;;;;;;5028650;28;20057;-41
2022/04/07 00:22:27;;;;;;;19.15;4.40;;;8.60;99.90;;;;;;5035231;28;20041;-42
2022/04/07 00:24:53;;;;;;;19.38;4.43;;;8.70;99.90;;;;;;5024499;28;20508;-42
2022/04/07 00:27:37;;;;;;;15.60;4.00;;;8.60;99.90;;;;;;5023956;28;20045;-41
2022/04/07 00:30:13;;;;;;;17.90;3.90;;;8.70;99.90;;;;;;5004355;28;20424;-42
2022/04/07 00:32:43;;;;;;;14.45;3.70;;;8.70;99.90;;;;;;5023740;28;20404;-41
2022/04/07 00:35:09;;;;;;;17.35;4.28;;;8.60;99.90;;;;;;5023505;28;20254;-42
2022/04/07 00:37:38;;;;;;;21.00;4.43;;;8.70;99.90;;;;;;5012794;28;20045;-42
2022/04/07 00:40:06;;;;;;;19.13;3.40;;;8.70;99.90;;;;;;5009786;28;20057;-41
2022/04/07 00:42:58;;;;;;;16.30;4.85;;;8.70;99.90;;;;;;5029569;28;20520;-43
2022/04/07 00:45:24;;;;;;;19.25;3.60;;;8.70;99.90;;;;;;5018814;28;20063;-43
2022/04/07 00:47:51;;;;;;;16.35;3.85;;;8.60;99.90;;;;;;5015908;28;20387;-42
2022/04/07 00:50:19;;;;;;;22.58;4.20;;;8.70;99.90;;;;;;5026543;28;20054;-42
2022/04/07 00:52:59;;;;;;;17.70;4.15;;;8.70;99.90;;;;;;5033792;28;20049;-42
2022/04/07 00:55:26;;;;;;;23.67;5.88;;;8.70;99.90;;;;;;5028294;28;20554;-41
2022/04/07 00:57:52;;;;;;;22.40;3.88;;;8.80;99.90;;;;;;5020186;28;20411;-42
2022/04/07 01:00:18;;;;;;;19.13;4.40;;;8.70;99.90;;;;;;5033441;28;20064;-41
2022/04/07 01:02:44;;;;;;;21.55;4.35;;;8.70;99.90;;;;;;5027484;28;20053;-42
2022/04/07 01:05:10;;;;;;;25.67;5.57;;;8.70;99.90;;;;;;5037272;28;20500;-42
2022/04/07 01:07:37;;;;;;;21.38;5.40;;;8.70;99.90;;;;;;5021696;28;20087;-41
2022/04/07 01:10:08;;;;;;;23.80;4.18;;;8.60;99.90;;;;;;5031953;28;20071;-41
2022/04/07 01:12:37;;;;;;;20.38;4.35;;;8.70;99.90;;;;;;5037879;28;20466;-42
2022/04/07 01:15:06;;;;;;;25.65;5.30;;;8.70;99.90;;;;;;5037192;28;20755;-42
2022/04/07 01:17:33;;;;;;;21.30;4.47;;;8.70;99.90;;;;;;5002187;28;20085;-43
2022/04/07 01:19:59;;;;;;;23.75;5.18;;;8.60;99.90;;;;;;5027846;28;20061;-41
2022/04/07 01:22:25;;;;;;;26.88;4.80;;;8.60;99.90;;;;;;5028930;28;20071;-42
2022/04/07 01:24:50;;;;;;;20.65;4.43;;;8.60;99.90;;;;;;5009612;28;20057;-41
2022/04/07 01:27:18;;;;;;;26.45;5.10;;;8.60;99.90;;;;;;5032308;28;20049;-41
2022/04/07 01:29:44;;;;;;;26.83;5.90;;;8.60;99.90;;;;;;5033727;28;20128;-42
2022/04/07 01:32:15;;;;;;;25.58;5.75;;;8.60;99.90;;;;;;5021680;28;20136;-43
2022/04/07 01:34:42;;;;;;;22.50;6.22;;;8.70;99.90;;;;;;5035214;28;20111;-42
2022/04/07 01:37:10;;;;;;;21.30;5.15;;;8.60;99.90;;;;;;5033634;28;20057;-43
2022/04/07 01:39:38;;;;;;;31.15;5.65;;;8.60;99.90;;;;;;5029653;28;20049;-41
2022/04/07 01:42:05;;;;;;;17.35;4.75;;;8.60;99.90;;;;;;5030816;28;20053;-42
2022/04/07 01:44:36;;;;;;;24.60;6.07;;;8.60;99.90;;;;;;5008896;28;20057;-42
2022/04/07 01:47:02;;;;;;;22.92;4.88;;;8.60;99.90;;;;;;5031722;28;20041;-41
2022/04/07 01:49:30;;;;;;;24.90;4.43;;;8.60;99.90;;;;;;5022779;28;20050;-42
2022/04/07 01:51:56;;;;;;;23.85;4.55;;;8.60;99.90;;;;;;4985582;28;20061;-41
2022/04/07 01:54:23;;;;;;;19.20;4.28;;;8.70;99.90;;;;;;5035155;28;20049;-42
2022/04/07 01:56:50;;;;;;;17.73;3.78;;;8.60;99.90;;;;;;5036652;28;20530;-41
2022/04/07 01:59:16;;;;;;;24.20;5.90;;;8.70;99.90;;;;;;5032765;28;20079;-41
2022/04/07 02:01:42;;;;;;;21.85;5.70;;;8.70;99.90;;;;;;5039644;28;20052;-42
2022/04/07 02:04:08;;;;;;;25.75;6.68;;;8.70;99.90;;;;;;5000567;28;20061;-41
2022/04/07 02:06:39;;;;;;;26.75;6.22;;;8.70;99.90;;;;;;5008357;28;20060;-42
2022/04/07 02:09:05;;;;;;;28.55;5.55;;;8.70;99.90;;;;;;5026511;28;20607;-41
2022/04/07 02:11:32;;;;;;;25.17;4.85;;;8.80;99.90;;;;;;5030616;28;20084;-42
2022/04/07 02:13:59;;;;;;;26.05;4.68;;;8.70;99.90;;;;;;5029409;28;20626;-41
2022/04/07 02:16:27;;;;;;;32.05;6.72;;;8.70;99.90;;;;;;5032605;28;21046;-44
2022/04/07 02:18:53;;;;;;;32.75;6.38;;;8.70;99.90;;;;;;5019276;28;20385;-41
2022/04/07 02:21:19;;;;;;;25.75;7.00;;;8.70;99.90;;;;;;5028620;28;20088;-41
2022/04/07 02:23:45;;;;;;;26.70;6.18;;;8.70;99.90;;;;;;5026768;28;20132;-41
2022/04/07 02:26:18;;;;;;;23.40;6.03;;;8.70;99.90;;;;;;5020094;28;20049;-42
2022/04/07 02:28:44;;;;;;;;;;;8.70;99.90;;;;;;5039079;28;20080;-41
2022/04/07 02:31:11;;;;;;;21.35;4.80;;;8.70;99.90;;;;;;5028391;28;19929;-41
2022/04/07 02:33:38;;;;;;;26.02;4.38;;;8.80;99.90;;;;;;4994212;28;20052;-42
2022/04/07 02:36:05;;;;;;;24.20;5.22;;;8.80;99.90;;;;;;5003460;28;20088;-42
2022/04/07 02:38:35;;;;;;;23.05;4.95;;;8.80;99.90;;;;;;5029885;28;20057;-41
2022/04/07 02:41:01;;;;;;;22.35;4.85;;;8.80;99.90;;;;;;5032428;28;20045;-41
2022/04/07 02:43:28;;;;;;;15.65;4.97;;;8.80;99.90;;;;;;5038489;28;20554;-42
2022/04/07 02:46:00;;;;;;;23.48;5.53;;;8.80;99.90;;;;;;5039032;28;20942;-41
2022/04/07 02:48:29;;;;;;;23.35;4.53;;;8.80;99.90;;;;;;5027012;28;20155;-43
2022/04/07 02:50:54;;;;;;;20.77;4.55;;;8.80;99.90;;;;;;5023031;28;20156;-41
2022/04/07 02:53:20;;;;;;;17.73;4.28;;;8.80;99.90;;;;;;5034688;28;20286;-43
2022/04/07 02:55:46;;;;;;;16.92;4.10;;;8.80;99.90;;;;;;5029039;28;20071;-48
2022/04/07 02:58:14;;;;;;;21.83;4.95;;;8.80;99.90;;;;;;5032613;28;20437;-43
2022/04/07 03:00:41;;;;;;;29.20;6.55;;;8.80;99.90;;;;;;5006512;28;20119;-42
2022/04/07 03:03:07;;;;;;;24.35;5.60;;;8.80;99.90;;;;;;5024363;28;20702;-41
2022/04/07 03:05:33;;;;;;;20.35;4.28;;;8.80;99.90;;;;;;5033697;28;20053;-41
2022/04/07 03:07:58;;;;;;;18.70;4.65;;;8.80;99.90;;;;;;5028852;28;20178;-41
2022/04/07 03:10:24;;;;;;;22.02;4.95;;;8.90;99.90;;;;;;5025511;28;20390;-41
2022/04/07 03:12:50;;;;;;;29.02;6.32;;;8.90;99.90;;;;;;5030034;28;20053;-44
2022/04/07 03:15:16;;;;;;;22.52;5.70;;;8.80;99.90;;;;;;5023862;28;20049;-42
2022/04/07 03:17:42;;;;;;;24.55;5.30;;;8.80;99.90;;;;;;5023457;28;20136;-41
2022/04/07 03:20:08;;;;;;;25.17;5.32;;;8.80;99.90;;;;;;5027572;28;20115;-42
2022/04/07 03:22:33;;;;;;;19.95;4.00;;;8.80;99.90;;;;;;5030264;28;20071;-41
2022/04/07 03:24:59;;;;;;;21.23;4.45;;;8.80;99.90;;;;;;5029700;28;20456;-41
2022/04/07 03:27:25;;;;;;;21.40;5.85;;;8.80;99.90;;;;;;5029283;28;20106;-41
2022/04/07 03:29:50;;;;;;;20.48;5.10;;;8.80;99.90;;;;;;5024545;28;20041;-42
2022/04/07 03:32:16;;;;;;;23.58;4.65;;;8.80;99.90;;;;;;5038140;28;20044;-41
2022/04/07 03:34:42;;;;;;;24.92;4.88;;;8.80;99.90;;;;;;5033989;28;20037;-43
2022/04/07 03:37:08;;;;;;;22.42;5.07;;;8.70;99.90;;;;;;5028468;28;20533;-41
2022/04/07 03:39:34;;;;;;;23.48;5.22;;;8.80;99.90;;;;;;5024766;28;20076;-41
2022/04/07 03:42:00;;;;;;;19.65;4.65;;;8.80;99.90;;;;;;5028817;28;20492;-41
2022/04/07 03:44:26;;;;;;;25.52;5.75;;;8.80;99.90;;;;;;5010307;28;20089;-42
2022/04/07 03:46:52;;;;;;;21.10;4.68;;;8.80;99.90;;;;;;5027744;28;20120;-41
2022/04/07 03:49:20;;;;;;;31.35;6.57;;;8.70;99.90;;;;;;5023134;28;20075;-41
2022/04/07 03:51:46;;;;;;;20.83;4.97;;;8.80;99.90;;;;;;5028391;28;20049;-42
2022/04/07 03:54:11;;;;;;;36.78;6.78;;;8.70;99.90;;;;;;5009040;28;20144;-41
2022/04/07 03:56:38;;;;;;;25.95;6.32;;;8.70;99.90;;;;;;5030483;28;20042;-42
2022/04/07 03:59:03;;;;;;;28.10;6.10;;;8.70;99.90;;;;;;5025103;28;20161;-41
2022/04/07 04:01:30;;;;;;;33.03;5.60;;;8.70;99.90;;;;;;5032811;28;20048;-41
2022/04/07 04:03:56;;;;;;;33.05;6.45;;;8.60;99.90;;;;;;5009923;28;20526;-41
2022/04/07 04:06:22;;;;;;;37.83;6.72;;;8.60;99.90;;;;;;5025537;28;20045;-42
2022/04/07 04:08:47;;;;;;;31.55;6.28;;;8.60;99.90;;;;;;5036974;28;20053;-42
2022/04/07 04:11:13;;;;;;;28.73;6.97;;;8.60;99.90;;;;;;5030034;28;20060;-43
2022/04/07 04:13:40;;;;;;;39.55;6.70;;;8.50;99.90;;;;;;5042321;28;20147;-41
2022/04/07 04:16:06;;;;;;;34.15;7.13;;;8.60;99.90;;;;;;5021613;28;20076;-42
2022/04/07 04:18:32;;;;;;;38.78;7.75;;;8.60;99.90;;;;;;5018536;28;20049;-42
2022/04/07 04:20:58;;;;;;;42.33;7.65;;;8.50;99.90;;;;;;5030039;28;20057;-42
2022/04/07 04:23:24;;;;;;;33.63;7.35;;;8.50;99.90;;;;;;5032931;28;20598;-42
2022/04/07 04:25:51;;;;;;;37.10;7.55;;;8.40;99.90;;;;;;5031945;28;20048;-41
2022/04/07 04:28:17;;;;;;;34.40;6.50;;;8.40;99.90;;;;;;5016742;28;20049;-41
2022/04/07 04:30:42;;;;;;;37.20;8.82;;;8.40;99.90;;;;;;5033257;28;20056;-41
2022/04/07 04:33:08;;;;;;;35.58;6.50;;;8.40;99.90;;;;;;5034828;28;20049;-41
2022/04/07 04:35:34;;;;;;;34.63;7.88;;;8.40;99.90;;;;;;5028037;28;20041;-41
2022/04/07 04:38:00;;;;;;;28.65;6.60;;;8.40;99.90;;;;;;5035461;28;20502;-41
2022/04/07 04:40:25;;;;;;;41.05;7.70;;;8.40;99.90;;;;;;5027581;28;20467;-41
2022/04/07 04:42:56;;;;;;;37.42;8.07;;;8.40;99.90;;;;;;5030071;28;20063;-42
2022/04/07 04:45:22;;;;;;;32.08;7.45;;;8.40;99.90;;;;;;5017675;28;20187;-41
2022/04/07 04:47:49;;;;;;;39.13;7.22;;;8.50;99.90;;;;;;5027469;28;20048;-42
2022/04/07 04:50:15;;;;;;;27.58;6.35;;;8.50;99.90;;;;;;5038841;28;20052;-41
2022/04/07 04:52:41;;;;;;;32.65;7.22;;;8.30;99.90;;;;;;5021611;28;20041;-41
2022/04/07 04:55:07;;;;;;;29.17;5.72;;;8.40;99.90;;;;;;5035142;28;20469;-43
2022/04/07 04:57:33;;;;;;;27.75;6.00;;;8.40;99.90;;;;;;5025960;28;20053;-41
2022/04/07 04:59:58;;;;;;;16.20;4.32;;;8.20;99.90;;;;;;5024999;28;20045;-40
2022/04/07 05:02:24;;;;;;;25.17;4.05;;;8.10;99.90;;;;;;5031066;28;20080;-41
2022/04/07 05:04:50;;;;;;;16.73;3.95;;;8.00;99.90;;;;;;5033327;28;20080;-41
2022/04/07 05:07:16;;;;;;;27.52;4.22;;;7.90;99.90;;;;;;5038475;28;20507;-41
2022/04/07 05:09:42;;;;;;;11.48;2.72;;;7.70;99.90;;;;;;5035392;28;20466;-40
2022/04/07 05:12:08;;;;;;;8.43;2.47;;;7.40;99.90;;;;;;5009873;28;20055;-41
2022/04/07 05:14:34;;;;;;;10.45;2.35;;;7.10;99.90;;;;;;5040341;28;20517;-40
2022/04/07 05:17:00;;;;;;;12.68;3.55;;;6.90;99.90;;;;;;5024038;28;20050;-40
2022/04/07 05:19:25;;;;;;;13.15;2.95;;;6.80;99.90;;;;;;5034260;28;20064;-40
2022/04/07 05:21:56;;;;;;;14.68;2.47;;;6.60;99.90;;;;;;5026301;28;20065;-41
2022/04/07 05:24:22;;;;;;;11.70;2.55;;;6.50;99.90;;;;;;5033167;28;20132;-41
2022/04/07 05:26:53;;;;;;;12.65;2.65;;;6.40;99.90;;;;;;5018691;28;20055;-42
2022/04/07 05:29:19;;;;;;;10.75;2.55;;;6.30;99.90;;;;;;5020916;28;20100;-42
2022/04/07 05:31:44;;;;;;;10.75;2.42;;;6.20;99.90;;;;;;5020978;28;20041;-41
2022/04/07 05:34:10;;;;;;;9.60;2.28;;;6.20;99.90;;;;;;5031933;28;20052;-41
2022/04/07 05:36:36;;;;;;;10.70;2.40;;;6.30;99.90;;;;;;5018500;28;20480;-40
2022/04/07 05:39:02;;;;;;;9.98;2.58;;;6.20;99.90;;;;;;5039395;28;20053;-40
2022/04/07 05:41:28;;;;;;;9.75;1.92;;;6.20;99.90;;;;;;5022611;28;20049;-40
2022/04/07 05:43:53;;;;;;;7.88;1.98;;;6.10;99.90;;;;;;5034009;28;20059;-40
2022/04/07 05:46:19;;;;;;;9.73;1.73;;;6.00;99.90;;;;;;5026134;28;20048;-40
2022/04/07 05:48:44;;;;;;;11.90;2.55;;;6.00;99.90;;;;;;5039329;28;20041;-40
2022/04/07 05:51:11;;;;;;;7.65;2.00;;;6.00;99.90;;;;;;5023029;28;20164;-42
2022/04/07 05:53:37;;;;;;;6.72;1.95;;;6.00;99.90;;;;;;5027802;28;20102;-40
2022/04/07 05:56:03;;;;;;;10.05;2.20;;;5.80;99.90;;;;;;5024080;28;20484;-40
2022/04/07 05:58:28;;;;;;;15.43;2.63;;;5.80;99.90;;;;;;4997062;28;20463;-40
2022/04/07 06:00:54;;;;;;;7.68;2.25;;;5.70;99.90;;;;;;5032638;28;20483;-40
2022/04/07 06:03:20;;;;;;;14.63;2.10;;;5.70;99.90;;;;;;5028909;28;20383;-41
2022/04/07 06:05:46;;;;;;;11.60;2.08;;;5.80;99.90;;;;;;5037641;28;20123;-40
2022/04/07 06:08:12;;;;;;;6.68;1.65;;;5.70;99.90;;;;;;5029135;28;20554;-40
2022/04/07 06:10:37;;;;;;;9.70;1.85;;;5.70;99.90;;;;;;5030535;28;20148;-41
2022/04/07 06:13:03;;;;;;;9.07;1.63;;;5.70;99.90;;;;;;5026007;28;20492;-40
2022/04/07 06:15:30;;;;;;;6.60;1.30;;;5.70;99.90;;;;;;5025509;28;20053;-40
2022/04/07 06:17:56;;;;;;;9.75;1.48;;;5.80;99.90;;;;;;5003515;28;20057;-40
2022/04/07 06:20:22;;;;;;;6.32;1.45;;;5.70;99.90;;;;;;5032175;28;20081;-40
2022/04/07 06:22:48;;;;;;;10.45;2.15;;;5.70;99.90;;;;;;5020025;28;20415;-41
2022/04/07 06:25:14;;;;;;;6.43;1.25;;;5.90;99.90;;;;;;5025373;28;20041;-40
2022/04/07 06:27:44;;;;;;;7.45;1.50;;;5.90;99.90;;;;;;5029135;28;20926;-41
2022/04/07 06:30:15;;;;;;;5.25;1.20;;;5.90;99.90;;;;;;5027983;28;20088;-40
2022/04/07 06:32:42;;;;;;;3.83;1.08;;;6.00;99.90;;;;;;5034909;28;20103;-41
2022/04/07 06:35:10;;;;;;;11.05;2.10;;;6.00;99.90;;;;;;5038919;28;20056;-42
2022/04/07 06:37:56;;;;;;;5.63;1.10;;;6.00;99.90;;;;;;5006631;28;20049;-41
2022/04/07 06:40:27;;;;;;;6.57;1.08;;;6.00;99.90;;;;;;5027651;28;20059;-41
2022/04/07 06:42:56;;;;;;;5.03;1.27;;;6.00;99.90;;;;;;5025410;28;20500;-42
2022/04/07 06:45:22;;;;;;;3.95;1.50;;;6.00;99.90;;;;;;5034636;28;20057;-40
2022/04/07 06:47:49;;;;;;;5.45;1.10;;;6.00;99.90;;;;;;5028658;28;20077;-41
2022/04/07 06:50:16;;;;;;;7.22;1.33;;;6.00;99.90;;;;;;5040137;28;20493;-41
2022/04/07 06:52:44;;;;;;;5.25;1.77;;;6.00;99.90;;;;;;5029262;28;20100;-41
2022/04/07 06:55:12;;;;;;;8.93;1.88;;;6.10;99.90;;;;;;5024069;28;20107;-41
2022/04/07 06:57:58;;;;;;;7.80;1.30;;;6.00;99.90;;;;;;5025449;28;20084;-40
2022/04/07 07:00:28;;;;;;;12.55;2.25;;;6.10;99.90;;;;;;5014024;28;20061;-41
2022/04/07 07:02:55;;;;;;;9.45;1.50;;;6.10;99.90;;;;;;5004151;28;20057;-41
2022/04/07 07:05:22;;;;;;;9.98;1.92;;;6.10;99.90;;;;;;5017166;28;20065;-41
2022/04/07 07:07:48;;;;;;;8.10;1.40;;;6.10;99.90;;;;;;5023539;28;20447;-40
2022/04/07 07:10:20;;;;;;;5.57;1.20;;;6.20;99.90;;;;;;5023239;28;20053;-41
2022/04/07 07:12:47;;;;;;;6.10;1.70;;;6.20;99.90;;;;;;5042281;28;20426;-41
2022/04/07 07:15:12;;;;;;;7.93;1.80;;;6.20;99.90;;;;;;5025497;28;20055;-41
2022/04/07 07:17:39;;;;;;;5.25;1.45;;;6.30;99.90;;;;;;5022414;28;20042;-43
2022/04/07 07:20:07;;;;;;;10.00;1.65;;;6.30;99.90;;;;;;5028585;28;20065;-41
2022/04/07 07:22:33;;;;;;;7.15;2.28;;;6.30;99.90;;;;;;5027512;28;20107;-42
2022/04/07 07:24:59;;;;;;;8.15;1.50;;;6.30;99.90;;;;;;5014501;28;20048;-41
2022/04/07 07:27:24;;;;;;;6.13;2.47;;;6.30;99.90;;;;;;5030953;28;20045;-41
2022/04/07 07:29:51;;;;;;;4.57;1.20;;;6.30;99.90;;;;;;5030847;28;20045;-41
2022/04/07 07:32:17;;;;;;;6.68;1.83;;;6.30;99.90;;;;;;5032020;28;20054;-41
2022/04/07 07:34:43;;;;;;;4.53;1.35;;;6.30;99.90;;;;;;5014406;28;20426;-42
2022/04/07 07:37:08;;;;;;;6.05;1.40;;;6.40;99.90;;;;;;5034877;28;20055;-41
2022/04/07 07:39:34;;;;;;;7.35;1.60;;;6.40;99.90;;;;;;5028134;28;20068;-42
2022/04/07 07:42:00;;;;;;;7.18;2.50;;;6.40;99.90;;;;;;5032234;28;20052;-41
2022/04/07 07:44:26;;;;;;;5.70;2.13;;;6.50;99.90;;;;;;5010718;28;20447;-42
2022/04/07 07:46:51;;;;;;;5.55;1.42;;;6.50;99.90;;;;;;5037487;28;20096;-42
2022/04/07 07:49:20;;;;;;;8.68;2.13;;;6.60;99.90;;;;;;5034603;28;20056;-44
2022/04/07 07:51:45;;;;;;;11.50;1.50;;;6.90;99.90;;;;;;5031352;28;20106;-41
2022/04/07 07:54:11;;;;;;;7.70;1.52;;;7.20;99.90;;;;;;5039253;28;20487;-42
2022/04/07 07:56:37;;;;;;;7.05;1.13;;;7.40;99.90;;;;;;5033592;28;20047;-42
2022/04/07 07:59:02;;;;;;;11.57;1.58;;;7.50;99.90;;;;;;5024905;28;20057;-43
2022/04/07 08:01:29;;;;;;;5.32;1.58;;;7.50;99.90;;;;;;5034188;28;20501;-42
2022/04/07 08:03:55;;;;;;;6.93;1.50;;;7.60;99.90;;;;;;5036613;28;20049;-42
2022/04/07 08:06:21;;;;;;;7.70;1.60;;;7.70;99.90;;;;;;5042395;28;20088;-42
2022/04/07 08:08:46;;;;;;;4.32;1.10;;;7.90;99.90;;;;;;5025516;28;20045;-41
2022/04/07 08:11:12;;;;;;;9.35;1.67;;;8.00;99.90;;;;;;5016420;28;20107;-41
2022/04/07 08:13:38;;;;;;;7.13;1.35;;;8.00;99.90;;;;;;5024534;28;20404;-42
2022/04/07 08:16:05;;;;;;;8.85;1.60;;;7.90;99.90;;;;;;5029518;28;20053;-41
2022/04/07 08:18:31;;;;;;;6.57;1.35;;;8.10;99.90;;;;;;5020335;28;20084;-42
2022/04/07 08:20:57;;;;;;;8.32;1.50;;;8.30;99.90;;;;;;5032975;28;20463;-41
2022/04/07 08:23:23;;;;;;;12.07;1.85;;;8.50;99.90;;;;;;5008606;28;20049;-42
2022/04/07 08:25:48;;;;;;;7.78;2.00;;;8.70;99.90;;;;;;5003118;28;20091;-42
2022/04/07 08:28:14;;;;;;;5.47;1.50;;;8.90;99.90;;;;;;5036306;28;20044;-43
2022/04/07 08:30:40;;;;;;;6.90;1.42;;;9.10;99.90;;;;;;5022179;28;20064;-42
2022/04/07 08:33:06;;;;;;;8.73;2.20;;;9.20;99.90;;;;;;5031276;28;20124;-42
2022/04/07 08:35:31;;;;;;;7.43;1.98;;;9.40;99.90;;;;;;5015311;28;20059;-43
2022/04/07 08:37:57;;;;;;;7.65;1.35;;;9.60;99.90;;;;;;5031191;28;20463;-42
2022/04/07 08:40:23;;;;;;;10.10;2.35;;;9.80;99.90;;;;;;5038376;28;20492;-43
2022/04/07 08:42:49;;;;;;;9.77;2.38;;;9.90;99.90;;;;;;5028080;28;20051;-43
2022/04/07 08:45:15;;;;;;;7.03;1.80;;;9.90;99.90;;;;;;5027166;28;20081;-42
2022/04/07 08:47:50;;;;;;;11.10;2.00;;;10.00;99.90;;;;;;5016211;28;20128;-42
2022/04/07 08:50:20;;;;;;;4.72;1.80;;;10.10;99.90;;;;;;5031241;28;20081;-43
2022/04/07 08:52:46;;;;;;;11.98;2.22;;;10.20;99.90;;;;;;5016183;28;20053;-43
2022/04/07 08:55:12;;;;;;;9.52;1.58;;;10.30;99.90;;;;;;5024630;28;20049;-42
2022/04/07 08:57:40;;;;;;;10.00;2.53;;;10.30;99.90;;;;;;5012039;28;20132;-43
2022/04/07 09:00:10;;;;;;;6.25;1.90;;;10.30;99.90;;;;;;5013775;28;20057;-42
2022/04/07 09:02:35;;;;;;;10.43;1.60;;;10.40;99.90;;;;;;5033155;28;20140;-43
2022/04/07 09:05:01;;;;;;;10.23;1.75;;;10.40;99.90;;;;;;5033722;28;20780;-48
2022/04/07 09:07:32;;;;;;;10.82;1.95;;;10.70;99.90;;;;;;5017687;28;20051;-43
2022/04/07 09:10:01;;;;;;;8.40;1.95;;;10.60;99.90;;;;;;5012102;28;20065;-42
2022/04/07 09:12:27;;;;;;;11.30;2.20;;;10.50;99.90;;;;;;5030182;28;20407;-44
2022/04/07 09:14:59;;;;;;;10.48;2.00;;;10.50;99.90;;;;;;5038463;28;20064;-45
2022/04/07 09:17:26;;;;;;;8.23;2.17;;;10.70;99.90;;;;;;5038761;28;20055;-44
2022/04/07 09:19:53;;;;;;;8.27;2.55;;;10.80;99.90;;;;;;5039641;28;20295;-43
2022/04/07 09:22:29;;;;;;;10.88;3.38;;;10.80;99.90;;;;;;5032226;28;20423;-43
2022/04/07 09:25:03;;;;;;;17.20;2.60;;;10.80;99.90;;;;;;5019394;28;20046;-43
2022/04/07 09:27:29;;;;;;;8.50;2.13;;;10.50;99.90;;;;;;5027916;28;20049;-42
2022/04/07 09:29:55;;;;;;;10.88;2.55;;;10.50;99.90;;;;;;5030249;28;20056;-43
2022/04/07 09:32:23;;;;;;;13.02;3.85;;;10.60;99.90;;;;;;5027886;28;20465;-43
2022/04/07 09:34:57;;;;;;;15.77;3.15;;;10.50;99.90;;;;;;5022405;28;20060;-42
2022/04/07 09:37:25;;;;;;;14.73;2.80;;;10.30;99.90;;;;;;5020115;28;20051;-43
2022/04/07 09:40:16;;;;;;;12.95;3.28;;;10.20;99.90;;;;;;5032251;28;20048;-42
2022/04/07 09:42:42;;;;;;;11.65;2.72;;;10.20;99.90;;;;;;5029302;28;20569;-43
2022/04/07 09:45:12;;;;;;;15.68;3.42;;;10.20;99.90;;;;;;5033206;28;20053;-44
2022/04/07 09:47:49;;;;;;;12.80;3.25;;;10.30;99.90;;;;;;5028802;28;20060;-42
2022/04/07 09:50:29;;;;;;;11.25;2.83;;;10.30;99.90;;;;;;5026499;28;20052;-42
2022/04/07 09:52:59;;;;;;;12.52;3.05;;;10.40;99.90;;;;;;5031703;28;20096;-44
2022/04/07 09:55:37;;;;;;;12.75;2.80;;;10.20;99.90;;;;;;5031308;28;20081;-44
2022/04/07 09:58:06;;;;;;;9.23;2.85;;;10.00;99.90;;;;;;5005623;28;20090;-43
2022/04/07 10:00:32;;;;;;;9.38;2.47;;;9.70;99.90;;;;;;5024169;28;20571;-43
2022/04/07 10:02:58;;;;;;;14.18;3.33;;;9.70;99.90;;;;;;5028652;28;20484;-43
2022/04/07 10:05:24;;;;;;;15.60;3.83;;;9.70;99.90;;;;;;5018509;28;20057;-42
2022/04/07 10:07:51;;;;;;;13.27;2.72;;;9.80;99.90;;;;;;5028454;28;20493;-43
2022/04/07 10:10:18;;;;;;;15.00;3.33;;;9.80;99.90;;;;;;5027445;28;20047;-44
2022/04/07 10:12:47;;;;;;;10.50;2.58;;;9.80;99.90;;;;;;5026852;28;20124;-43
2022/04/07 10:15:14;;;;;;;14.48;4.15;;;9.70;99.90;;;;;;5024613;28;20046;-43
2022/04/07 10:17:40;;;;;;;10.15;2.42;;;9.70;99.90;;;;;;5036149;28;20067;-45
2022/04/07 10:20:09;;;;;;;12.98;3.00;;;9.50;99.90;;;;;;5031600;28;20515;-42
2022/04/07 10:23:16;;;;;;;15.90;2.92;;;9.40;99.90;;;;;;5021540;28;20061;-44
2022/04/07 10:25:44;;;;;;;18.98;3.80;;;9.40;99.90;;;;;;5037486;28;20057;-43
2022/04/07 10:28:12;;;;;;;19.45;4.50;;;9.50;99.90;;;;;;5022167;28;20567;-44
2022/04/07 10:30:49;;;;;;;15.63;3.92;;;9.50;99.90;;;;;;5029065;28;20053;-44
2022/04/07 10:33:46;;;;;;;13.60;3.47;;;9.60;99.90;;;;;;5027844;28;20045;-42
2022/04/07 10:36:17;;;;;;;16.33;4.13;;;9.70;99.90;;;;;;5028862;28;20046;-44
2022/04/07 10:38:47;;;;;;;14.55;3.47;;;9.50;99.90;;;;;;5010223;28;20057;-42
2022/04/07 10:41:36;;;;;;;11.65;2.92;;;9.30;99.90;;;;;;5022272;28;20238;-43
2022/04/07 10:44:11;;;;;;;10.93;2.70;;;9.00;99.90;;;;;;5010000;28;20518;-42
2022/04/07 10:46:37;;;;;;;18.05;3.05;;;8.90;99.90;;;;;;5006878;28;20427;-41
2022/04/07 10:49:07;;;;;;;17.45;3.72;;;9.00;99.90;;;;;;5004978;28;20408;-42
2022/04/07 10:51:45;;;;;;;13.15;3.25;;;9.20;99.90;;;;;;5028565;28;20041;-42
2022/04/07 10:54:12;;;;;;;15.52;4.80;;;9.30;99.90;;;;;;5026887;28;20538;-42
2022/04/07 10:56:39;;;;;;;15.23;3.55;;;9.50;99.90;;;;;;5023951;28;20045;-43
2022/04/07 10:59:27;;;;;;;15.52;3.05;;;9.70;99.90;;;;;;5033146;28;20451;-42
2022/04/07 11:02:03;;;;;;;19.15;3.90;;;9.80;99.90;;;;;;5010780;28;20049;-43
2022/04/07 11:04:37;;;;;;;20.80;4.00;;;10.10;99.90;;;;;;5028895;28;20049;-42
2022/04/07 11:07:15;;;;;;;19.10;4.18;;;10.30;99.90;;;;;;5011780;28;20115;-43
2022/04/07 11:09:47;;;;;;;16.58;3.63;;;10.40;99.90;;;;;;5029552;28;20107;-42
2022/04/07 11:12:23;;;;;;;17.52;4.85;;;10.50;99.90;;;;;;5022053;28;20059;-43
2022/04/07 11:14:51;;;;;;;13.40;3.22;;;10.50;99.90;;;;;;5011697;28;20060;-46
2022/04/07 11:17:28;;;;;;;18.75;4.45;;;10.30;99.90;;;;;;5034043;28;20049;-43
2022/04/07 11:20:06;;;;;;;18.83;4.07;;;10.10;99.90;;;;;;5017775;28;20052;-42
2022/04/07 11:23:13;;;;;;;14.32;3.85;;;9.90;99.90;;;;;;5012759;28;20504;-42
2022/04/07 11:25:46;;;;;;;20.75;3.53;;;9.90;99.90;;;;;;5042901;28;20733;-43
2022/04/07 11:28:24;;;;;;;14.25;3.50;;;10.00;99.90;;;;;;5033720;28;20051;-42
2022/04/07 11:30:56;;;;;;;15.10;3.53;;;10.10;99.90;;;;;;5018066;28;20049;-43
2022/04/07 11:33:28;;;;;;;14.45;2.80;;;10.20;99.90;;;;;;5039477;28;20090;-43
2022/04/07 11:36:00;;;;;;;16.05;3.30;;;10.30;99.90;;;;;;5005538;28;20072;-43
2022/04/07 11:38:44;;;;;;;18.60;3.00;;;10.20;99.90;;;;;;5023588;28;20122;-43
2022/04/07 11:41:11;;;;;;;13.80;3.95;;;10.20;99.90;;;;;;5019747;28;20056;-42
2022/04/07 11:43:39;;;;;;;18.35;3.92;;;10.30;99.90;;;;;;5029675;28;20057;-43
2022/04/07 11:46:06;;;;;;;10.95;3.00;;;10.40;99.90;;;;;;5008025;28;20084;-42
2022/04/07 11:48:33;;;;;;;17.73;3.30;;;10.60;99.90;;;;;;5030703;28;20515;-43
2022/04/07 11:51:03;;;;;;;14.07;3.92;;;10.90;99.90;;;;;;5027923;28;20045;-44
2022/04/07 11:53:29;;;;;;;14.48;3.60;;;10.90;99.90;;;;;;5032398;28;20052;-43
2022/04/07 11:56:10;;;;;;;14.77;3.88;;;11.00;99.90;;;;;;5024901;28;20099;-42
2022/04/07 11:58:36;;;;;;;14.50;3.65;;;11.20;99.90;;;;;;5030680;28;20091;-44
2022/04/07 12:01:11;;;;;;;18.50;3.20;;;11.40;99.90;;;;;;5036105;28;20497;-43
2022/04/07 12:03:38;;;;;;;12.30;3.88;;;11.60;99.90;;;;;;5035141;28;20041;-42
2022/04/07 12:06:04;;;;;;;13.60;3.60;;;11.60;99.90;;;;;;5014403;28;20056;-43
2022/04/07 12:08:31;;;;;;;10.88;2.60;;;11.60;99.90;;;;;;5028785;28;20523;-43
2022/04/07 12:10:58;;;;;;;15.10;4.15;;;11.60;99.90;;;;;;5020902;28;20551;-42
2022/04/07 12:13:24;;;;;;;11.27;2.33;;;11.60;99.90;;;;;;5021110;28;20505;-44
2022/04/07 12:15:50;;;;;;;13.02;3.20;;;11.40;99.90;;;;;;5021664;28;20555;-42
2022/04/07 12:18:25;;;;;;;10.55;3.05;;;11.00;99.90;;;;;;5021224;28;20049;-42
2022/04/07 12:21:02;;;;;;;10.57;2.28;;;10.20;99.90;;;;;;5027652;28;20064;-42
2022/04/07 12:23:28;;;;;;;6.20;1.88;;;9.40;99.90;;;;;;5033530;28;20092;-42
2022/04/07 12:26:01;;;;;;;8.05;1.70;;;8.90;99.90;;;;;;5041184;28;20075;-43
2022/04/07 12:28:38;;;;;;;12.38;2.38;;;8.50;99.90;;;;;;5036657;28;20127;-43
2022/04/07 12:31:13;;;;;;;11.90;2.85;;;8.30;99.90;;;;;;5023130;28;20054;-42
2022/04/07 12:33:47;;;;;;;18.08;2.80;;;8.30;99.90;;;;;;5030615;28;20049;-42
2022/04/07 12:36:33;;;;;;;5.78;1.55;;;8.30;99.90;;;;;;5040429;28;20044;-42
2022/04/07 12:39:03;;;;;;;10.30;2.70;;;8.20;99.90;;;;;;5021841;28;20522;-43
2022/04/07 12:41:39;;;;;;;7.53;1.83;;;8.10;99.90;;;;;;4999650;28;20056;-42
2022/04/07 12:44:06;;;;;;;7.38;1.65;;;8.00;99.90;;;;;;5022363;28;20057;-43
2022/04/07 12:46:53;;;;;;;6.68;1.88;;;8.10;99.90;;;;;;5015411;28;20492;-42
2022/04/07 12:49:26;;;;;;;8.40;2.03;;;8.20;99.90;;;;;;5024790;28;20057;-44
2022/04/07 12:52:03;;;;;;;9.18;2.47;;;8.30;99.90;;;;;;5031969;28;20041;-43
2022/04/07 12:54:29;;;;;;;8.02;2.25;;;8.20;99.90;;;;;;5018879;28;20056;-44